National Weather Service Raw Text Product

Displaying AFOS PIL: TAFOTM Received: 2018-02-09 06:18 UTC


885 
FTUS43 KDMX 090618 AAA
TAFOTM
TAF AMD
KOTM 090618Z 0906/1006 05009KT 5SM BR BKN007 OVC120
     FM091000 02010KT P6SM VCSH OVC007
     FM091500 02011G17KT 2SM -SN OVC012
     FM092000 01011KT P6SM OVC020
     FM100000 36011KT 2SM -SN OVC011=